sensor_id;sensor_type;location;lat;lon;timestamp;pressure;altitude;pressure_sealevel;temperature;humidity
21240;BME280;10778;48.962;9.018;2023-03-23T00:01:27;98446.22;;;13.30;61.16
21240;BME280;10778;48.962;9.018;2023-03-23T00:03:57;98447.34;;;13.35;61.66
21240;BME280;10778;48.962;9.018;2023-03-23T00:06:27;98444.06;;;13.25;61.84
21240;BME280;10778;48.962;9.018;2023-03-23T00:09:00;98445.91;;;13.25;62.08
21240;BME280;10778;48.962;9.018;2023-03-23T00:11:30;98442.63;;;13.22;62.20
21240;BME280;10778;48.962;9.018;2023-03-23T00:13:58;98438.47;;;13.28;61.69
21240;BME280;10778;48.962;9.018;2023-03-23T00:16:31;98447.50;;;13.34;62.00
21240;BME280;10778;48.962;9.018;2023-03-23T00:19:00;98443.41;;;13.31;61.84
21240;BME280;10778;48.962;9.018;2023-03-23T00:21:29;98449.34;;;13.33;62.42
21240;BME280;10778;48.962;9.018;2023-03-23T00:24:03;98434.34;;;13.17;62.73
21240;BME280;10778;48.962;9.018;2023-03-23T00:26:32;98432.84;;;13.23;62.63
21240;BME280;10778;48.962;9.018;2023-03-23T00:29:01;98429.53;;;13.29;62.52
21240;BME280;10778;48.962;9.018;2023-03-23T00:31:28;98425.28;;;13.20;63.21
21240;BME280;10778;48.962;9.018;2023-03-23T00:33:58;98426.13;;;13.20;63.28
21240;BME280;10778;48.962;9.018;2023-03-23T00:36:27;98426.78;;;13.14;63.82
21240;BME280;10778;48.962;9.018;2023-03-23T00:38:54;98421.16;;;13.17;63.56
21240;BME280;10778;48.962;9.018;2023-03-23T00:41:24;98417.00;;;13.23;63.94
21240;BME280;10778;48.962;9.018;2023-03-23T00:43:54;98408.28;;;13.14;63.80
21240;BME280;10778;48.962;9.018;2023-03-23T00:46:20;98401.34;;;13.21;63.29
21240;BME280;10778;48.962;9.018;2023-03-23T00:48:46;98396.53;;;13.25;64.02
21240;BME280;10778;48.962;9.018;2023-03-23T00:51:13;98396.41;;;13.18;64.32
21240;BME280;10778;48.962;9.018;2023-03-23T00:53:39;98398.72;;;13.13;65.00
21240;BME280;10778;48.962;9.018;2023-03-23T00:56:07;98402.41;;;13.04;65.38
21240;BME280;10778;48.962;9.018;2023-03-23T00:58:34;98397.13;;;13.04;65.15
21240;BME280;10778;48.962;9.018;2023-03-23T01:01:00;98395.94;;;13.06;65.32
21240;BME280;10778;48.962;9.018;2023-03-23T01:03:26;98395.31;;;13.04;65.58
21240;BME280;10778;48.962;9.018;2023-03-23T01:05:54;98394.94;;;13.07;65.17
21240;BME280;10778;48.962;9.018;2023-03-23T01:08:21;98403.06;;;13.06;65.92
21240;BME280;10778;48.962;9.018;2023-03-23T01:10:48;98394.63;;;13.11;65.83
21240;BME280;10778;48.962;9.018;2023-03-23T01:13:14;98386.56;;;13.04;65.82
21240;BME280;10778;48.962;9.018;2023-03-23T01:15:41;98378.78;;;13.11;66.36
21240;BME280;10778;48.962;9.018;2023-03-23T01:18:09;98375.81;;;13.05;65.62
21240;BME280;10778;48.962;9.018;2023-03-23T01:20:38;98378.78;;;13.11;65.87
21240;BME280;10778;48.962;9.018;2023-03-23T01:23:04;98384.75;;;13.04;65.90
21240;BME280;10778;48.962;9.018;2023-03-23T01:25:34;98380.94;;;13.07;65.92
21240;BME280;10778;48.962;9.018;2023-03-23T01:28:01;98378.13;;;13.08;65.94
21240;BME280;10778;48.962;9.018;2023-03-23T01:30:27;98381.28;;;13.04;66.32
21240;BME280;10778;48.962;9.018;2023-03-23T01:32:54;98375.81;;;13.05;66.63
21240;BME280;10778;48.962;9.018;2023-03-23T01:35:21;98370.25;;;13.00;65.96
21240;BME280;10778;48.962;9.018;2023-03-23T01:37:48;98364.66;;;12.95;66.13
21240;BME280;10778;48.962;9.018;2023-03-23T01:40:15;98362.66;;;12.97;65.60
21240;BME280;10778;48.962;9.018;2023-03-23T01:42:43;98353.41;;;13.01;65.77
21240;BME280;10778;48.962;9.018;2023-03-23T01:45:32;98353.69;;;13.06;65.43
21240;BME280;10778;48.962;9.018;2023-03-23T01:48:17;98356.38;;;12.98;65.61
21240;BME280;10778;48.962;9.018;2023-03-23T01:51:01;98351.31;;;12.88;66.17
21240;BME280;10778;48.962;9.018;2023-03-23T01:53:39;98352.97;;;12.81;66.42
21240;BME280;10778;48.962;9.018;2023-03-23T01:56:07;98351.47;;;12.87;65.85
21240;BME280;10778;48.962;9.018;2023-03-23T01:58:38;98351.34;;;12.80;65.81
21240;BME280;10778;48.962;9.018;2023-03-23T02:01:06;98351.34;;;12.80;66.21
21240;BME280;10778;48.962;9.018;2023-03-23T02:03:35;98349.38;;;12.74;66.06
21240;BME280;10778;48.962;9.018;2023-03-23T02:06:02;98349.34;;;12.82;66.34
21240;BME280;10778;48.962;9.018;2023-03-23T02:08:48;98350.03;;;12.76;66.39
21240;BME280;10778;48.962;9.018;2023-03-23T02:11:17;98339.69;;;12.66;66.45
21240;BME280;10778;48.962;9.018;2023-03-23T02:13:44;98350.88;;;12.68;66.30
21240;BME280;10778;48.962;9.018;2023-03-23T02:27:08;98341.63;;;12.72;66.35
21240;BME280;10778;48.962;9.018;2023-03-23T02:32:57;98318.00;;;12.79;65.98
21240;BME280;10778;48.962;9.018;2023-03-23T02:35:34;98314.22;;;12.82;66.06
21240;BME280;10778;48.962;9.018;2023-03-23T02:38:06;98311.94;;;12.70;66.77
21240;BME280;10778;48.962;9.018;2023-03-23T02:41:01;98310.94;;;12.71;66.37
21240;BME280;10778;48.962;9.018;2023-03-23T02:43:33;98304.81;;;12.79;66.14
21240;BME280;10778;48.962;9.018;2023-03-23T02:46:05;98301.81;;;12.82;66.17
21240;BME280;10778;48.962;9.018;2023-03-23T02:48:33;98289.81;;;12.79;65.95
21240;BME280;10778;48.962;9.018;2023-03-23T02:51:01;98289.13;;;12.86;66.14
21240;BME280;10778;48.962;9.018;2023-03-23T02:53:30;98290.63;;;12.80;66.22
21240;BME280;10778;48.962;9.018;2023-03-23T02:55:59;98297.34;;;12.91;65.49
21240;BME280;10778;48.962;9.018;2023-03-23T02:58:29;98297.66;;;12.96;65.13
21240;BME280;10778;48.962;9.018;2023-03-23T03:00:56;98289.50;;;13.06;64.68
21240;BME280;10778;48.962;9.018;2023-03-23T03:03:29;98290.19;;;13.00;64.88
21240;BME280;10778;48.962;9.018;2023-03-23T03:09:25;98283.25;;;12.99;64.55
21240;BME280;10778;48.962;9.018;2023-03-23T03:11:24;98285.44;;;12.95;64.61
21240;BME280;10778;48.962;9.018;2023-03-23T03:14:04;98283.63;;;12.95;65.14
21240;BME280;10778;48.962;9.018;2023-03-23T03:16:44;98285.44;;;12.95;65.22
21240;BME280;10778;48.962;9.018;2023-03-23T03:22:02;98278.53;;;12.94;65.82
21240;BME280;10778;48.962;9.018;2023-03-23T03:24:40;98280.38;;;12.85;65.85
21240;BME280;10778;48.962;9.018;2023-03-23T03:27:17;98283.19;;;12.84;66.06
21240;BME280;10778;48.962;9.018;2023-03-23T03:29:50;98282.19;;;12.85;65.95
21240;BME280;10778;48.962;9.018;2023-03-23T03:32:24;98286.34;;;12.79;66.25
21240;BME280;10778;48.962;9.018;2023-03-23T03:34:53;98282.53;;;12.82;66.26
21240;BME280;10778;48.962;9.018;2023-03-23T03:37:20;98277.13;;;12.75;66.30
21240;BME280;10778;48.962;9.018;2023-03-23T03:39:47;98280.38;;;12.85;66.25
21240;BME280;10778;48.962;9.018;2023-03-23T03:42:13;98279.25;;;12.79;66.46
21240;BME280;10778;48.962;9.018;2023-03-23T03:44:39;98278.94;;;12.74;67.11
21240;BME280;10778;48.962;9.018;2023-03-23T03:47:05;98273.50;;;12.76;66.70
21240;BME280;10778;48.962;9.018;2023-03-23T03:49:31;98272.19;;;12.72;66.88
21240;BME280;10778;48.962;9.018;2023-03-23T03:51:57;98271.69;;;12.76;66.58
21240;BME280;10778;48.962;9.018;2023-03-23T03:54:33;98277.00;;;12.68;67.01
21240;BME280;10778;48.962;9.018;2023-03-23T03:56:59;98279.28;;;12.71;66.97
21240;BME280;10778;48.962;9.018;2023-03-23T03:59:57;98291.94;;;12.84;66.86
21240;BME280;10778;48.962;9.018;2023-03-23T04:02:44;98283.91;;;12.77;66.90
21240;BME280;10778;48.962;9.018;2023-03-23T04:05:13;98274.31;;;12.76;66.98
21240;BME280;10778;48.962;9.018;2023-03-23T04:07:40;98283.53;;;12.80;66.76
21240;BME280;10778;48.962;9.018;2023-03-23T04:10:09;98289.75;;;12.88;66.78
21240;BME280;10778;48.962;9.018;2023-03-23T04:12:37;98293.53;;;12.93;66.28
21240;BME280;10778;48.962;9.018;2023-03-23T04:15:35;98278.94;;;13.06;65.80
21240;BME280;10778;48.962;9.018;2023-03-23T04:18:01;98278.94;;;13.06;65.56
21240;BME280;10778;48.962;9.018;2023-03-23T04:20:28;98279.44;;;13.09;65.97
21240;BME280;10778;48.962;9.018;2023-03-23T04:22:55;98282.34;;;13.15;65.74
21240;BME280;10778;48.962;9.018;2023-03-23T04:25:24;98278.19;;;13.20;65.57
21240;BME280;10778;48.962;9.018;2023-03-23T04:27:52;98266.41;;;13.31;64.98
21240;BME280;10778;48.962;9.018;2023-03-23T04:30:24;98263.75;;;13.31;65.03
21240;BME280;10778;48.962;9.018;2023-03-23T04:33:09;98270.72;;;13.24;65.89
21240;BME280;10778;48.962;9.018;2023-03-23T04:35:41;98271.56;;;13.25;66.10
21240;BME280;10778;48.962;9.018;2023-03-23T04:38:16;98277.72;;;13.17;66.59
21240;BME280;10778;48.962;9.018;2023-03-23T04:40:46;98288.16;;;13.10;67.58
21240;BME280;10778;48.962;9.018;2023-03-23T04:43:24;98274.47;;;13.06;67.45
21240;BME280;10778;48.962;9.018;2023-03-23T04:46:13;98284.59;;;13.03;67.08
21240;BME280;10778;48.962;9.018;2023-03-23T04:48:44;98284.75;;;13.01;66.88
21240;BME280;10778;48.962;9.018;2023-03-23T04:51:16;98293.50;;;13.02;67.13
21240;BME280;10778;48.962;9.018;2023-03-23T04:53:46;98286.13;;;12.89;67.56
21240;BME280;10778;48.962;9.018;2023-03-23T04:56:12;98287.91;;;12.97;67.11
21240;BME280;10778;48.962;9.018;2023-03-23T04:58:44;98283.97;;;12.92;67.25
21240;BME280;10778;48.962;9.018;2023-03-23T05:01:14;98283.63;;;12.95;66.99
21240;BME280;10778;48.962;9.018;2023-03-23T05:03:50;98284.13;;;12.91;67.32
21240;BME280;10778;48.962;9.018;2023-03-23T05:06:16;98281.81;;;12.96;67.00
21240;BME280;10778;48.962;9.018;2023-03-23T05:08:42;98281.81;;;12.96;66.67
21240;BME280;10778;48.962;9.018;2023-03-23T05:11:09;98279.03;;;12.89;66.98
21240;BME280;10778;48.962;9.018;2023-03-23T05:13:38;98280.09;;;13.03;66.52
21240;BME280;10778;48.962;9.018;2023-03-23T05:16:06;98282.50;;;12.90;67.35
21240;BME280;10778;48.962;9.018;2023-03-23T05:18:34;98277.94;;;13.07;66.56
21240;BME280;10778;48.962;9.018;2023-03-23T05:21:04;98286.38;;;13.02;66.70
21240;BME280;10778;48.962;9.018;2023-03-23T05:23:35;98292.06;;;12.91;67.64
21240;BME280;10778;48.962;9.018;2023-03-23T05:26:10;98291.41;;;12.89;67.63
21240;BME280;10778;48.962;9.018;2023-03-23T05:28:36;98287.44;;;12.93;67.08
21240;BME280;10778;48.962;9.018;2023-03-23T05:31:08;98294.66;;;12.99;67.34
21240;BME280;10778;48.962;9.018;2023-03-23T05:33:35;98293.69;;;12.92;67.73
21240;BME280;10778;48.962;9.018;2023-03-23T05:36:31;98293.81;;;12.99;67.45
21240;BME280;10778;48.962;9.018;2023-03-23T05:39:20;98289.31;;;12.84;67.67
21240;BME280;10778;48.962;9.018;2023-03-23T05:42:22;98281.31;;;12.92;67.59
21240;BME280;10778;48.962;9.018;2023-03-23T05:45:14;98284.13;;;12.91;67.82
21240;BME280;10778;48.962;9.018;2023-03-23T05:47:42;98296.81;;;12.95;67.13
21240;BME280;10778;48.962;9.018;2023-03-23T05:50:16;98298.66;;;12.95;67.91
21240;BME280;10778;48.962;9.018;2023-03-23T05:52:43;98308.88;;;12.98;66.91
21240;BME280;10778;48.962;9.018;2023-03-23T05:55:12;98311.31;;;13.00;67.24
21240;BME280;10778;48.962;9.018;2023-03-23T05:57:41;98318.69;;;13.13;68.24
21240;BME280;10778;48.962;9.018;2023-03-23T06:00:17;98314.47;;;13.27;70.16
21240;BME280;10778;48.962;9.018;2023-03-23T06:02:56;98315.19;;;13.44;69.74
21240;BME280;10778;48.962;9.018;2023-03-23T06:05:29;98324.97;;;13.35;69.18
21240;BME280;10778;48.962;9.018;2023-03-23T06:07:56;98325.56;;;13.54;68.86
21240;BME280;10778;48.962;9.018;2023-03-23T06:10:22;98330.66;;;13.55;67.88
21240;BME280;10778;48.962;9.018;2023-03-23T06:13:02;98335.66;;;13.50;67.98
21240;BME280;10778;48.962;9.018;2023-03-23T06:15:35;98334.03;;;13.41;68.62
21240;BME280;10778;48.962;9.018;2023-03-23T06:18:26;98350.75;;;13.33;67.95
21240;BME280;10778;48.962;9.018;2023-03-23T06:21:10;98366.66;;;13.25;69.10
21240;BME280;10778;48.962;9.018;2023-03-23T06:23:55;98361.25;;;13.18;68.09
21240;BME280;10778;48.962;9.018;2023-03-23T06:26:35;98371.28;;;13.22;69.74
21240;BME280;10778;48.962;9.018;2023-03-23T06:29:05;98375.44;;;13.17;70.47
21240;BME280;10778;48.962;9.018;2023-03-23T06:31:46;98380.50;;;13.27;69.93
21240;BME280;10778;48.962;9.018;2023-03-23T06:34:14;98378.03;;;13.25;69.88
21240;BME280;10778;48.962;9.018;2023-03-23T06:37:06;98386.72;;;13.34;72.34
21240;BME280;10778;48.962;9.018;2023-03-23T06:39:37;98379.28;;;13.37;72.07
21240;BME280;10778;48.962;9.018;2023-03-23T06:42:23;98379.59;;;13.43;72.62
21240;BME280;10778;48.962;9.018;2023-03-23T06:45:11;98379.78;;;13.41;69.49
21240;BME280;10778;48.962;9.018;2023-03-23T06:47:39;98380.38;;;13.51;69.08
21240;BME280;10778;48.962;9.018;2023-03-23T06:50:06;98375.78;;;13.54;69.74
21240;BME280;10778;48.962;9.018;2023-03-23T06:52:34;98374.91;;;13.61;70.87
21240;BME280;10778;48.962;9.018;2023-03-23T06:55:00;98368.63;;;13.62;71.05
21240;BME280;10778;48.962;9.018;2023-03-23T06:57:26;98372.66;;;13.50;69.42
21240;BME280;10778;48.962;9.018;2023-03-23T06:59:52;98375.78;;;13.54;69.94
21240;BME280;10778;48.962;9.018;2023-03-23T07:02:18;98381.66;;;13.32;71.84
21240;BME280;10778;48.962;9.018;2023-03-23T07:04:50;98389.94;;;13.21;73.63
21240;BME280;10778;48.962;9.018;2023-03-23T07:07:21;98399.56;;;13.14;73.02
21240;BME280;10778;48.962;9.018;2023-03-23T07:10:07;98403.06;;;13.06;71.96
21240;BME280;10778;48.962;9.018;2023-03-23T07:12:35;98406.34;;;13.08;71.86
21240;BME280;10778;48.962;9.018;2023-03-23T07:15:03;98408.16;;;13.07;71.79
21240;BME280;10778;48.962;9.018;2023-03-23T07:17:30;98420.75;;;12.97;73.07
21240;BME280;10778;48.962;9.018;2023-03-23T07:20:06;98419.25;;;13.03;72.29
21240;BME280;10778;48.962;9.018;2023-03-23T07:22:33;98422.84;;;13.10;72.26
21240;BME280;10778;48.962;9.018;2023-03-23T07:25:07;98431.91;;;13.16;72.71
21240;BME280;10778;48.962;9.018;2023-03-23T07:27:49;98440.47;;;13.18;72.40
21240;BME280;10778;48.962;9.018;2023-03-23T07:30:16;98443.28;;;13.16;72.67
21240;BME280;10778;48.962;9.018;2023-03-23T07:32:42;98456.97;;;13.20;71.20
21240;BME280;10778;48.962;9.018;2023-03-23T07:35:09;98460.63;;;13.19;72.38
21240;BME280;10778;48.962;9.018;2023-03-23T07:37:54;98460.72;;;13.34;70.74
21240;BME280;10778;48.962;9.018;2023-03-23T07:40:20;98456.06;;;13.53;70.47
21240;BME280;10778;48.962;9.018;2023-03-23T07:42:55;98451.56;;;13.61;70.60
21240;BME280;10778;48.962;9.018;2023-03-23T07:46:00;98442.69;;;13.77;70.55
21240;BME280;10778;48.962;9.018;2023-03-23T07:48:42;98440.06;;;14.01;71.03
21240;BME280;10778;48.962;9.018;2023-03-23T07:51:08;98453.44;;;14.22;71.04
21240;BME280;10778;48.962;9.018;2023-03-23T07:53:35;98445.28;;;14.09;71.97
21240;BME280;10778;48.962;9.018;2023-03-23T07:56:20;98460.69;;;14.05;72.34
21240;BME280;10778;48.962;9.018;2023-03-23T07:58:52;98457.97;;;13.90;72.77
21240;BME280;10778;48.962;9.018;2023-03-23T08:01:18;98453.09;;;14.02;72.70
21240;BME280;10778;48.962;9.018;2023-03-23T08:04:03;98456.69;;;13.86;73.33
21240;BME280;10778;48.962;9.018;2023-03-23T08:06:38;98463.69;;;13.79;74.11
21240;BME280;10778;48.962;9.018;2023-03-23T08:09:24;98473.56;;;13.77;74.52
21240;BME280;10778;48.962;9.018;2023-03-23T08:12:02;98465.13;;;13.82;74.95
21240;BME280;10778;48.962;9.018;2023-03-23T08:14:50;98462.63;;;13.88;74.97
21240;BME280;10778;48.962;9.018;2023-03-23T08:17:55;98474.66;;;13.91;75.14
21240;BME280;10778;48.962;9.018;2023-03-23T08:20:47;98465.97;;;13.82;75.53
21240;BME280;10778;48.962;9.018;2023-03-23T08:23:26;98484.06;;;13.70;76.19
21240;BME280;10778;48.962;9.018;2023-03-23T08:25:55;98474.78;;;13.66;76.21
21240;BME280;10778;48.962;9.018;2023-03-23T08:28:41;98482.66;;;13.51;78.13
21240;BME280;10778;48.962;9.018;2023-03-23T08:31:48;98473.25;;;13.40;77.98
21240;BME280;10778;48.962;9.018;2023-03-23T08:34:42;98477.09;;;13.29;78.61
21240;BME280;10778;48.962;9.018;2023-03-23T08:37:27;98491.31;;;13.28;78.27
21240;BME280;10778;48.962;9.018;2023-03-23T08:40:20;98473.31;;;13.23;79.03
21240;BME280;10778;48.962;9.018;2023-03-23T08:43:06;98487.38;;;13.07;79.31
21240;BME280;10778;48.962;9.018;2023-03-23T08:46:09;98496.63;;;13.12;79.50
21240;BME280;10778;48.962;9.018;2023-03-23T08:48:56;98483.25;;;13.13;80.00
21240;BME280;10778;48.962;9.018;2023-03-23T08:51:28;98495.94;;;13.18;80.75
21240;BME280;10778;48.962;9.018;2023-03-23T08:54:09;98504.19;;;13.23;80.74
21240;BME280;10778;48.962;9.018;2023-03-23T08:57:07;98495.91;;;13.26;79.94
21240;BME280;10778;48.962;9.018;2023-03-23T08:59:52;98494.75;;;13.29;79.34
21240;BME280;10778;48.962;9.018;2023-03-23T09:02:54;98502.13;;;13.42;78.68
21240;BME280;10778;48.962;9.018;2023-03-23T09:05:24;98496.72;;;13.43;78.52
21240;BME280;10778;48.962;9.018;2023-03-23T09:08:15;98496.69;;;13.35;79.67
21240;BME280;10778;48.962;9.018;2023-03-23T09:10:41;98505.13;;;13.38;78.66
21240;BME280;10778;48.962;9.018;2023-03-23T09:13:07;98507.44;;;13.50;78.32
21240;BME280;10778;48.962;9.018;2023-03-23T09:15:33;98505.94;;;13.47;78.14
21240;BME280;10778;48.962;9.018;2023-03-23T09:17:59;98517.34;;;13.40;79.72
21240;BME280;10778;48.962;9.018;2023-03-23T09:20:27;98530.38;;;13.41;79.11
21240;BME280;10778;48.962;9.018;2023-03-23T09:22:55;98518.53;;;13.29;78.64
21240;BME280;10778;48.962;9.018;2023-03-23T09:25:25;98541.47;;;13.36;80.53
21240;BME280;10778;48.962;9.018;2023-03-23T09:27:56;98559.84;;;13.21;83.18
21240;BME280;10778;48.962;9.018;2023-03-23T09:30:26;98556.25;;;12.89;87.81
21240;BME280;10778;48.962;9.018;2023-03-23T09:32:53;98537.09;;;12.79;91.33
21240;BME280;10778;48.962;9.018;2023-03-23T09:35:19;98551.13;;;12.96;92.28
21240;BME280;10778;48.962;9.018;2023-03-23T09:37:49;98547.16;;;13.00;90.49
21240;BME280;10778;48.962;9.018;2023-03-23T09:40:21;98546.16;;;13.09;89.88
21240;BME280;10778;48.962;9.018;2023-03-23T09:43:01;98533.94;;;13.00;89.71
21240;BME280;10778;48.962;9.018;2023-03-23T09:49:02;98553.00;;;13.44;85.47
21240;BME280;10778;48.962;9.018;2023-03-23T09:51:44;98558.16;;;13.37;85.64
21240;BME280;10778;48.962;9.018;2023-03-23T09:54:25;98560.63;;;13.47;86.49
21240;BME280;10778;48.962;9.018;2023-03-23T09:56:53;98565.59;;;13.33;86.71
21240;BME280;10778;48.962;9.018;2023-03-23T10:02:15;98574.50;;;13.32;87.72
21240;BME280;10778;48.962;9.018;2023-03-23T10:04:48;98571.81;;;13.41;87.84
21240;BME280;10778;48.962;9.018;2023-03-23T10:07:17;98579.63;;;13.17;88.58
21240;BME280;10778;48.962;9.018;2023-03-23T10:09:46;98573.41;;;13.02;90.12
21240;BME280;10778;48.962;9.018;2023-03-23T10:15:00;98576.88;;;13.11;91.32
21240;BME280;10778;48.962;9.018;2023-03-23T10:25:34;98572.69;;;14.44;85.18
21240;BME280;10778;48.962;9.018;2023-03-23T10:28:04;98585.16;;;14.59;84.15
21240;BME280;10778;48.962;9.018;2023-03-23T10:30:56;98585.63;;;15.09;83.18
21240;BME280;10778;48.962;9.018;2023-03-23T10:33:34;98585.56;;;14.71;81.03
21240;BME280;10778;48.962;9.018;2023-03-23T10:36:14;98589.56;;;14.43;82.57
21240;BME280;10778;48.962;9.018;2023-03-23T10:39:09;98579.59;;;14.54;81.91
21240;BME280;10778;48.962;9.018;2023-03-23T10:41:31;98569.91;;;14.61;83.12
21240;BME280;10778;48.962;9.018;2023-03-23T10:43:57;98562.75;;;14.46;83.36
21240;BME280;10778;48.962;9.018;2023-03-23T10:46:46;98578.81;;;14.45;83.91
21240;BME280;10778;48.962;9.018;2023-03-23T10:49:20;98567.81;;;14.33;84.96
21240;BME280;10778;48.962;9.018;2023-03-23T10:54:50;98572.59;;;14.06;85.11
21240;BME280;10778;48.962;9.018;2023-03-23T10:57:26;98576.03;;;14.15;84.77
21240;BME280;10778;48.962;9.018;2023-03-23T11:00:06;98571.56;;;14.15;85.36
21240;BME280;10778;48.962;9.018;2023-03-23T11:02:40;98562.78;;;14.15;86.11
21240;BME280;10778;48.962;9.018;2023-03-23T11:05:18;98557.34;;;14.16;84.13
21240;BME280;10778;48.962;9.018;2023-03-23T11:07:51;98561.72;;;14.01;85.28
21240;BME280;10778;48.962;9.018;2023-03-23T11:10:25;98568.44;;;13.80;84.09
21240;BME280;10778;48.962;9.018;2023-03-23T11:12:52;98565.00;;;13.71;83.75
21240;BME280;10778;48.962;9.018;2023-03-23T11:15:42;98564.78;;;13.81;83.76
21240;BME280;10778;48.962;9.018;2023-03-23T11:18:24;98565.94;;;13.87;83.10
21240;BME280;10778;48.962;9.018;2023-03-23T11:20:58;98554.00;;;13.91;82.84
21240;BME280;10778;48.962;9.018;2023-03-23T11:23:28;98560.94;;;13.92;82.22
21240;BME280;10778;48.962;9.018;2023-03-23T11:26:08;98559.38;;;13.74;83.12
21240;BME280;10778;48.962;9.018;2023-03-23T11:28:42;98570.69;;;13.91;82.31
21240;BME280;10778;48.962;9.018;2023-03-23T11:31:08;98567.53;;;13.96;83.19
21240;BME280;10778;48.962;9.018;2023-03-23T11:36:19;98561.31;;;14.12;80.74
21240;BME280;10778;48.962;9.018;2023-03-23T11:38:46;98552.13;;;14.00;81.34
21240;BME280;10778;48.962;9.018;2023-03-23T11:41:16;98555.63;;;14.23;81.12
21240;BME280;10778;48.962;9.018;2023-03-23T11:43:46;98560.06;;;14.55;80.29
21240;BME280;10778;48.962;9.018;2023-03-23T11:46:23;98560.41;;;14.51;79.50
21240;BME280;10778;48.962;9.018;2023-03-23T11:49:09;98570.75;;;14.38;79.66
21240;BME280;10778;48.962;9.018;2023-03-23T11:51:42;98567.50;;;14.51;80.29
21240;BME280;10778;48.962;9.018;2023-03-23T11:54:21;98571.13;;;14.35;79.75
21240;BME280;10778;48.962;9.018;2023-03-23T11:56:51;98577.53;;;14.09;81.71
21240;BME280;10778;48.962;9.018;2023-03-23T11:59:25;98574.50;;;14.20;82.44
21240;BME280;10778;48.962;9.018;2023-03-23T12:07:56;98571.47;;;14.55;81.10
21240;BME280;10778;48.962;9.018;2023-03-23T12:10:31;98572.81;;;14.51;80.90
21240;BME280;10778;48.962;9.018;2023-03-23T12:15:50;98573.03;;;14.73;82.30
21240;BME280;10778;48.962;9.018;2023-03-23T12:27:39;98554.19;;;15.66;79.30
21240;BME280;10778;48.962;9.018;2023-03-23T12:32:58;98545.06;;;15.69;76.58
21240;BME280;10778;48.962;9.018;2023-03-23T12:36:29;98545.16;;;15.75;75.85
21240;BME280;10778;48.962;9.018;2023-03-23T12:38:38;98535.53;;;15.59;75.98
21240;BME280;10778;48.962;9.018;2023-03-23T12:41:20;98531.25;;;15.58;76.44
21240;BME280;10778;48.962;9.018;2023-03-23T12:48:52;98528.66;;;15.80;75.79
21240;BME280;10778;48.962;9.018;2023-03-23T13:02:20;98514.97;;;15.76;74.72
21240;BME280;10778;48.962;9.018;2023-03-23T13:05:06;98502.63;;;15.69;74.60
21240;BME280;10778;48.962;9.018;2023-03-23T13:07:43;98497.97;;;15.71;74.94
21240;BME280;10778;48.962;9.018;2023-03-23T13:10:28;98498.84;;;15.78;73.91
21240;BME280;10778;48.962;9.018;2023-03-23T13:12:55;98496.31;;;15.70;74.87
21240;BME280;10778;48.962;9.018;2023-03-23T13:18:16;98483.63;;;15.87;75.25
21240;BME280;10778;48.962;9.018;2023-03-23T13:21:06;98484.16;;;15.75;74.54
21240;BME280;10778;48.962;9.018;2023-03-23T13:23:39;98483.69;;;15.72;74.00
21240;BME280;10778;48.962;9.018;2023-03-23T13:26:17;98482.44;;;15.68;74.10
21240;BME280;10778;48.962;9.018;2023-03-23T13:31:28;98474.75;;;15.58;74.30
21240;BME280;10778;48.962;9.018;2023-03-23T13:34:04;98473.69;;;15.37;74.32
21240;BME280;10778;48.962;9.018;2023-03-23T13:36:43;98470.84;;;15.39;75.28
21240;BME280;10778;48.962;9.018;2023-03-23T13:39:24;98472.69;;;15.23;75.13
21240;BME280;10778;48.962;9.018;2023-03-23T13:47:43;98467.47;;;15.15;76.46
21240;BME280;10778;48.962;9.018;2023-03-23T13:50:24;98463.19;;;15.14;75.42
21240;BME280;10778;48.962;9.018;2023-03-23T13:52:56;98450.94;;;15.13;75.71
21240;BME280;10778;48.962;9.018;2023-03-23T14:00:36;98420.50;;;15.39;74.91
21240;BME280;10778;48.962;9.018;2023-03-23T14:03:14;98403.34;;;15.56;74.21
21240;BME280;10778;48.962;9.018;2023-03-23T14:06:01;98410.47;;;15.56;73.61
21240;BME280;10778;48.962;9.018;2023-03-23T14:10:58;98415.06;;;15.84;72.69
21240;BME280;10778;48.962;9.018;2023-03-23T14:16:01;98403.69;;;15.68;73.44
21240;BME280;10778;48.962;9.018;2023-03-23T14:18:35;98402.53;;;15.56;73.79
21240;BME280;10778;48.962;9.018;2023-03-23T14:21:03;98397.41;;;15.54;74.24
21240;BME280;10778;48.962;9.018;2023-03-23T14:23:32;98411.06;;;15.51;75.06
21240;BME280;10778;48.962;9.018;2023-03-23T14:26:09;98410.41;;;15.49;74.87
21240;BME280;10778;48.962;9.018;2023-03-23T14:28:38;98412.13;;;15.57;74.72
21240;BME280;10778;48.962;9.018;2023-03-23T14:31:14;98416.72;;;15.48;75.40
21240;BME280;10778;48.962;9.018;2023-03-23T14:33:41;98422.75;;;15.42;74.89
21240;BME280;10778;48.962;9.018;2023-03-23T14:36:08;98415.19;;;15.39;77.07
21240;BME280;10778;48.962;9.018;2023-03-23T14:38:34;98425.34;;;15.35;76.98
21240;BME280;10778;48.962;9.018;2023-03-23T14:41:04;98418.50;;;15.26;76.40
21240;BME280;10778;48.962;9.018;2023-03-23T14:43:33;98424.81;;;15.25;76.16
21240;BME280;10778;48.962;9.018;2023-03-23T14:46:02;98426.59;;;15.39;76.08
21240;BME280;10778;48.962;9.018;2023-03-23T14:48:31;98424.03;;;15.46;76.27
21240;BME280;10778;48.962;9.018;2023-03-23T14:50:58;98428.22;;;15.55;75.58
21240;BME280;10778;48.962;9.018;2023-03-23T14:56:01;98429.28;;;15.24;76.96
21240;BME280;10778;48.962;9.018;2023-03-23T14:58:28;98425.72;;;15.32;76.44
21240;BME280;10778;48.962;9.018;2023-03-23T15:01:03;98419.31;;;15.26;77.03
21240;BME280;10778;48.962;9.018;2023-03-23T15:03:44;98427.22;;;15.04;76.81
21240;BME280;10778;48.962;9.018;2023-03-23T15:06:18;98412.78;;;15.07;77.49
21240;BME280;10778;48.962;9.018;2023-03-23T15:08:46;98419.63;;;15.01;77.91
21240;BME280;10778;48.962;9.018;2023-03-23T15:11:23;98420.06;;;15.05;77.75
21240;BME280;10778;48.962;9.018;2023-03-23T15:13:56;98416.69;;;14.81;78.55
21240;BME280;10778;48.962;9.018;2023-03-23T15:16:30;98426.78;;;14.62;78.78
21240;BME280;10778;48.962;9.018;2023-03-23T15:19:04;98420.97;;;14.67;78.63